sensor_id;sensor_type;location;lat;lon;timestamp;P1;durP1;ratioP1;P2;durP2;ratioP2
20026;SDS011;10174;42.688;23.344;2023-07-31T00:01:52;6.45;;;4.00;;
20026;SDS011;10174;42.688;23.344;2023-07-31T00:04:17;5.25;;;3.92;;
20026;SDS011;10174;42.688;23.344;2023-07-31T00:06:43;6.57;;;3.83;;
20026;SDS011;10174;42.688;23.344;2023-07-31T00:09:08;5.32;;;3.97;;
20026;SDS011;10174;42.688;23.344;2023-07-31T00:11:34;4.80;;;3.65;;
20026;SDS011;10174;42.688;23.344;2023-07-31T00:13:59;5.97;;;3.78;;
20026;SDS011;10174;42.688;23.344;2023-07-31T00:16:25;4.53;;;3.50;;
20026;SDS011;10174;42.688;23.344;2023-07-31T00:18:50;6.05;;;3.92;;
20026;SDS011;10174;42.688;23.344;2023-07-31T00:21:16;7.53;;;4.53;;
20026;SDS011;10174;42.688;23.344;2023-07-31T00:23:41;5.95;;;4.38;;
20026;SDS011;10174;42.688;23.344;2023-07-31T00:26:06;6.15;;;3.90;;
20026;SDS011;10174;42.688;23.344;2023-07-31T00:28:32;5.10;;;3.90;;
20026;SDS011;10174;42.688;23.344;2023-07-31T00:30:57;7.60;;;4.45;;
20026;SDS011;10174;42.688;23.344;2023-07-31T00:33:22;5.95;;;4.07;;
20026;SDS011;10174;42.688;23.344;2023-07-31T00:35:48;7.68;;;4.43;;
20026;SDS011;10174;42.688;23.344;2023-07-31T00:38:14;7.35;;;4.70;;
20026;SDS011;10174;42.688;23.344;2023-07-31T00:40:39;7.70;;;5.03;;
20026;SDS011;10174;42.688;23.344;2023-07-31T00:43:05;5.40;;;4.55;;
20026;SDS011;10174;42.688;23.344;2023-07-31T00:45:30;7.28;;;5.20;;
20026;SDS011;10174;42.688;23.344;2023-07-31T00:47:56;7.82;;;4.60;;
20026;SDS011;10174;42.688;23.344;2023-07-31T00:50:22;7.90;;;5.40;;
20026;SDS011;10174;42.688;23.344;2023-07-31T00:52:50;7.70;;;5.28;;
20026;SDS011;10174;42.688;23.344;2023-07-31T00:55:15;8.32;;;6.70;;
20026;SDS011;10174;42.688;23.344;2023-07-31T00:57:42;11.13;;;7.10;;
20026;SDS011;10174;42.688;23.344;2023-07-31T01:00:08;12.13;;;7.47;;
20026;SDS011;10174;42.688;23.344;2023-07-31T01:02:33;11.57;;;8.63;;
20026;SDS011;10174;42.688;23.344;2023-07-31T01:05:00;12.13;;;8.60;;
20026;SDS011;10174;42.688;23.344;2023-07-31T01:07:29;13.13;;;9.95;;
20026;SDS011;10174;42.688;23.344;2023-07-31T01:12:40;17.38;;;10.82;;
20026;SDS011;10174;42.688;23.344;2023-07-31T01:15:08;15.20;;;11.00;;
20026;SDS011;10174;42.688;23.344;2023-07-31T01:17:37;14.90;;;10.90;;
20026;SDS011;10174;42.688;23.344;2023-07-31T01:20:04;17.02;;;11.75;;
20026;SDS011;10174;42.688;23.344;2023-07-31T01:22:39;23.30;;;13.98;;
20026;SDS011;10174;42.688;23.344;2023-07-31T01:28:34;20.42;;;13.85;;
20026;SDS011;10174;42.688;23.344;2023-07-31T01:31:01;24.20;;;15.88;;
20026;SDS011;10174;42.688;23.344;2023-07-31T01:33:29;23.98;;;15.25;;
20026;SDS011;10174;42.688;23.344;2023-07-31T01:35:55;26.20;;;17.17;;
20026;SDS011;10174;42.688;23.344;2023-07-31T01:38:21;28.55;;;17.58;;
20026;SDS011;10174;42.688;23.344;2023-07-31T01:40:50;26.63;;;18.17;;
20026;SDS011;10174;42.688;23.344;2023-07-31T01:43:17;28.85;;;18.83;;
20026;SDS011;10174;42.688;23.344;2023-07-31T01:45:43;30.00;;;19.70;;
20026;SDS011;10174;42.688;23.344;2023-07-31T01:48:08;27.98;;;19.13;;
20026;SDS011;10174;42.688;23.344;2023-07-31T01:50:33;35.15;;;22.00;;
20026;SDS011;10174;42.688;23.344;2023-07-31T01:52:59;35.30;;;23.30;;
20026;SDS011;10174;42.688;23.344;2023-07-31T01:55:24;36.58;;;23.05;;
20026;SDS011;10174;42.688;23.344;2023-07-31T01:57:50;40.38;;;23.95;;
20026;SDS011;10174;42.688;23.344;2023-07-31T02:00:17;38.83;;;24.58;;
20026;SDS011;10174;42.688;23.344;2023-07-31T02:02:42;39.00;;;23.52;;
20026;SDS011;10174;42.688;23.344;2023-07-31T02:05:08;36.75;;;23.40;;
20026;SDS011;10174;42.688;23.344;2023-07-31T02:07:33;35.83;;;23.33;;
20026;SDS011;10174;42.688;23.344;2023-07-31T02:09:59;46.13;;;24.08;;
20026;SDS011;10174;42.688;23.344;2023-07-31T02:12:24;37.80;;;24.38;;
20026;SDS011;10174;42.688;23.344;2023-07-31T02:14:49;38.60;;;24.00;;
20026;SDS011;10174;42.688;23.344;2023-07-31T02:17:15;35.83;;;22.08;;
20026;SDS011;10174;42.688;23.344;2023-07-31T02:19:40;33.35;;;22.15;;
20026;SDS011;10174;42.688;23.344;2023-07-31T02:22:06;35.25;;;22.17;;
20026;SDS011;10174;42.688;23.344;2023-07-31T02:24:31;36.08;;;23.60;;
20026;SDS011;10174;42.688;23.344;2023-07-31T02:26:57;35.30;;;24.02;;
20026;SDS011;10174;42.688;23.344;2023-07-31T02:29:22;36.70;;;23.63;;
20026;SDS011;10174;42.688;23.344;2023-07-31T02:31:47;35.13;;;22.10;;
20026;SDS011;10174;42.688;23.344;2023-07-31T02:34:13;38.20;;;23.88;;
20026;SDS011;10174;42.688;23.344;2023-07-31T02:36:39;36.80;;;23.02;;
20026;SDS011;10174;42.688;23.344;2023-07-31T02:39:04;35.90;;;24.05;;
20026;SDS011;10174;42.688;23.344;2023-07-31T02:41:30;37.58;;;23.83;;
20026;SDS011;10174;42.688;23.344;2023-07-31T02:43:55;37.00;;;23.80;;
20026;SDS011;10174;42.688;23.344;2023-07-31T02:46:20;38.88;;;23.15;;
20026;SDS011;10174;42.688;23.344;2023-07-31T02:48:49;37.80;;;24.42;;
20026;SDS011;10174;42.688;23.344;2023-07-31T02:51:14;35.67;;;23.10;;
20026;SDS011;10174;42.688;23.344;2023-07-31T02:53:40;41.70;;;24.88;;
20026;SDS011;10174;42.688;23.344;2023-07-31T02:56:05;36.45;;;23.20;;
20026;SDS011;10174;42.688;23.344;2023-07-31T02:58:30;37.20;;;23.00;;
20026;SDS011;10174;42.688;23.344;2023-07-31T03:00:57;35.75;;;23.52;;
20026;SDS011;10174;42.688;23.344;2023-07-31T03:03:23;38.78;;;22.45;;
20026;SDS011;10174;42.688;23.344;2023-07-31T03:05:49;37.50;;;24.10;;
20026;SDS011;10174;42.688;23.344;2023-07-31T03:08:14;35.85;;;22.25;;
20026;SDS011;10174;42.688;23.344;2023-07-31T03:10:40;40.38;;;24.30;;
20026;SDS011;10174;42.688;23.344;2023-07-31T03:13:05;33.70;;;22.65;;
20026;SDS011;10174;42.688;23.344;2023-07-31T03:15:31;36.65;;;24.02;;
20026;SDS011;10174;42.688;23.344;2023-07-31T03:17:56;34.47;;;23.05;;
20026;SDS011;10174;42.688;23.344;2023-07-31T03:20:22;38.63;;;24.00;;
20026;SDS011;10174;42.688;23.344;2023-07-31T03:22:47;34.75;;;22.55;;
20026;SDS011;10174;42.688;23.344;2023-07-31T03:25:13;34.05;;;22.95;;
20026;SDS011;10174;42.688;23.344;2023-07-31T03:27:39;34.33;;;23.30;;
20026;SDS011;10174;42.688;23.344;2023-07-31T03:30:04;38.63;;;24.45;;
20026;SDS011;10174;42.688;23.344;2023-07-31T03:32:30;38.78;;;23.77;;
20026;SDS011;10174;42.688;23.344;2023-07-31T03:34:56;36.60;;;23.55;;
20026;SDS011;10174;42.688;23.344;2023-07-31T03:37:22;36.47;;;23.58;;
20026;SDS011;10174;42.688;23.344;2023-07-31T03:39:47;41.30;;;24.08;;
20026;SDS011;10174;42.688;23.344;2023-07-31T03:42:13;43.28;;;25.83;;
20026;SDS011;10174;42.688;23.344;2023-07-31T03:44:38;37.90;;;23.92;;
20026;SDS011;10174;42.688;23.344;2023-07-31T03:47:04;38.55;;;24.92;;
20026;SDS011;10174;42.688;23.344;2023-07-31T03:49:30;36.63;;;23.60;;
20026;SDS011;10174;42.688;23.344;2023-07-31T03:51:55;38.10;;;23.90;;
20026;SDS011;10174;42.688;23.344;2023-07-31T03:54:21;42.15;;;23.92;;
20026;SDS011;10174;42.688;23.344;2023-07-31T03:56:46;39.10;;;24.05;;
20026;SDS011;10174;42.688;23.344;2023-07-31T03:59:12;37.30;;;23.52;;
20026;SDS011;10174;42.688;23.344;2023-07-31T04:01:37;37.97;;;23.33;;
20026;SDS011;10174;42.688;23.344;2023-07-31T04:04:02;42.47;;;24.63;;
20026;SDS011;10174;42.688;23.344;2023-07-31T04:06:28;39.70;;;24.10;;
20026;SDS011;10174;42.688;23.344;2023-07-31T04:08:53;39.85;;;24.50;;
20026;SDS011;10174;42.688;23.344;2023-07-31T04:11:19;41.42;;;25.90;;
20026;SDS011;10174;42.688;23.344;2023-07-31T04:13:44;43.10;;;25.50;;
20026;SDS011;10174;42.688;23.344;2023-07-31T04:16:09;44.13;;;24.98;;
20026;SDS011;10174;42.688;23.344;2023-07-31T04:18:35;48.60;;;26.08;;
20026;SDS011;10174;42.688;23.344;2023-07-31T04:21:00;41.78;;;25.33;;
20026;SDS011;10174;42.688;23.344;2023-07-31T04:23:27;41.75;;;24.85;;
20026;SDS011;10174;42.688;23.344;2023-07-31T04:25:53;41.72;;;25.75;;
20026;SDS011;10174;42.688;23.344;2023-07-31T04:28:18;42.45;;;25.25;;
20026;SDS011;10174;42.688;23.344;2023-07-31T04:30:43;42.03;;;23.60;;
20026;SDS011;10174;42.688;23.344;2023-07-31T04:33:09;43.15;;;24.65;;
20026;SDS011;10174;42.688;23.344;2023-07-31T04:35:34;41.72;;;24.73;;
20026;SDS011;10174;42.688;23.344;2023-07-31T04:38:00;43.45;;;24.17;;
20026;SDS011;10174;42.688;23.344;2023-07-31T04:40:25;44.22;;;24.52;;
20026;SDS011;10174;42.688;23.344;2023-07-31T04:42:51;38.97;;;23.48;;
20026;SDS011;10174;42.688;23.344;2023-07-31T04:45:16;37.53;;;22.83;;
20026;SDS011;10174;42.688;23.344;2023-07-31T04:47:42;39.38;;;22.98;;
20026;SDS011;10174;42.688;23.344;2023-07-31T04:50:07;40.20;;;23.63;;
20026;SDS011;10174;42.688;23.344;2023-07-31T04:52:33;38.47;;;23.42;;
20026;SDS011;10174;42.688;23.344;2023-07-31T04:54:58;38.15;;;23.48;;
20026;SDS011;10174;42.688;23.344;2023-07-31T04:57:24;37.35;;;22.90;;
20026;SDS011;10174;42.688;23.344;2023-07-31T04:59:49;41.70;;;23.90;;
20026;SDS011;10174;42.688;23.344;2023-07-31T05:02:14;41.22;;;23.38;;
20026;SDS011;10174;42.688;23.344;2023-07-31T05:04:40;37.05;;;22.38;;
20026;SDS011;10174;42.688;23.344;2023-07-31T05:07:05;38.05;;;21.63;;
20026;SDS011;10174;42.688;23.344;2023-07-31T05:09:31;36.45;;;22.08;;
20026;SDS011;10174;42.688;23.344;2023-07-31T05:11:56;37.75;;;24.48;;
20026;SDS011;10174;42.688;23.344;2023-07-31T05:14:21;35.88;;;21.08;;
20026;SDS011;10174;42.688;23.344;2023-07-31T05:16:47;31.02;;;21.08;;
20026;SDS011;10174;42.688;23.344;2023-07-31T05:19:12;30.85;;;21.00;;
20026;SDS011;10174;42.688;23.344;2023-07-31T05:21:38;30.00;;;19.40;;
20026;SDS011;10174;42.688;23.344;2023-07-31T05:24:03;27.52;;;18.70;;
20026;SDS011;10174;42.688;23.344;2023-07-31T05:26:29;28.83;;;18.50;;
20026;SDS011;10174;42.688;23.344;2023-07-31T05:28:54;27.10;;;19.10;;
20026;SDS011;10174;42.688;23.344;2023-07-31T05:31:19;22.63;;;15.85;;
20026;SDS011;10174;42.688;23.344;2023-07-31T05:33:45;25.05;;;16.48;;
20026;SDS011;10174;42.688;23.344;2023-07-31T05:36:11;27.45;;;16.98;;
20026;SDS011;10174;42.688;23.344;2023-07-31T05:38:36;21.80;;;15.95;;
20026;SDS011;10174;42.688;23.344;2023-07-31T05:41:02;23.48;;;16.27;;
20026;SDS011;10174;42.688;23.344;2023-07-31T05:43:27;27.05;;;16.10;;
20026;SDS011;10174;42.688;23.344;2023-07-31T05:45:53;25.40;;;15.13;;
20026;SDS011;10174;42.688;23.344;2023-07-31T05:48:18;21.77;;;14.30;;
20026;SDS011;10174;42.688;23.344;2023-07-31T05:50:43;20.25;;;13.02;;
20026;SDS011;10174;42.688;23.344;2023-07-31T05:53:09;20.90;;;14.07;;
20026;SDS011;10174;42.688;23.344;2023-07-31T05:55:35;17.00;;;11.80;;
20026;SDS011;10174;42.688;23.344;2023-07-31T05:58:00;20.23;;;12.85;;
20026;SDS011;10174;42.688;23.344;2023-07-31T06:00:26;16.48;;;12.43;;
20026;SDS011;10174;42.688;23.344;2023-07-31T06:02:52;16.33;;;11.18;;
20026;SDS011;10174;42.688;23.344;2023-07-31T06:05:18;15.93;;;11.30;;
20026;SDS011;10174;42.688;23.344;2023-07-31T06:07:44;14.65;;;10.27;;
20026;SDS011;10174;42.688;23.344;2023-07-31T06:10:09;15.93;;;10.43;;
20026;SDS011;10174;42.688;23.344;2023-07-31T06:12:35;11.57;;;8.52;;
20026;SDS011;10174;42.688;23.344;2023-07-31T06:15:01;12.93;;;9.15;;
20026;SDS011;10174;42.688;23.344;2023-07-31T06:17:28;13.70;;;9.23;;
20026;SDS011;10174;42.688;23.344;2023-07-31T06:19:54;15.23;;;8.80;;
20026;SDS011;10174;42.688;23.344;2023-07-31T06:22:22;11.43;;;7.95;;
20026;SDS011;10174;42.688;23.344;2023-07-31T06:24:47;10.52;;;7.60;;
20026;SDS011;10174;42.688;23.344;2023-07-31T06:27:13;10.88;;;7.35;;
20026;SDS011;10174;42.688;23.344;2023-07-31T06:29:38;10.90;;;7.07;;
20026;SDS011;10174;42.688;23.344;2023-07-31T06:32:04;8.32;;;6.47;;
20026;SDS011;10174;42.688;23.344;2023-07-31T06:34:29;8.93;;;6.40;;
20026;SDS011;10174;42.688;23.344;2023-07-31T06:36:55;9.13;;;6.03;;
20026;SDS011;10174;42.688;23.344;2023-07-31T06:39:21;8.50;;;5.97;;
20026;SDS011;10174;42.688;23.344;2023-07-31T06:41:47;7.78;;;5.93;;
20026;SDS011;10174;42.688;23.344;2023-07-31T06:44:12;9.13;;;6.22;;
20026;SDS011;10174;42.688;23.344;2023-07-31T06:46:38;10.77;;;6.03;;
20026;SDS011;10174;42.688;23.344;2023-07-31T06:49:03;10.38;;;5.90;;
20026;SDS011;10174;42.688;23.344;2023-07-31T06:51:28;9.85;;;5.85;;
20026;SDS011;10174;42.688;23.344;2023-07-31T06:53:56;11.25;;;5.55;;
20026;SDS011;10174;42.688;23.344;2023-07-31T06:56:21;8.15;;;5.80;;
20026;SDS011;10174;42.688;23.344;2023-07-31T06:58:47;10.05;;;5.45;;
20026;SDS011;10174;42.688;23.344;2023-07-31T07:01:12;8.38;;;6.45;;
20026;SDS011;10174;42.688;23.344;2023-07-31T07:03:38;8.05;;;5.85;;
20026;SDS011;10174;42.688;23.344;2023-07-31T07:06:03;8.73;;;5.35;;
20026;SDS011;10174;42.688;23.344;2023-07-31T07:08:29;7.18;;;5.25;;
20026;SDS011;10174;42.688;23.344;2023-07-31T07:10:54;10.68;;;5.53;;
20026;SDS011;10174;42.688;23.344;2023-07-31T07:13:21;9.60;;;4.85;;
20026;SDS011;10174;42.688;23.344;2023-07-31T07:15:50;8.07;;;5.43;;
20026;SDS011;10174;42.688;23.344;2023-07-31T07:18:16;9.00;;;4.93;;
20026;SDS011;10174;42.688;23.344;2023-07-31T07:20:51;6.47;;;4.57;;
20026;SDS011;10174;42.688;23.344;2023-07-31T07:23:17;6.32;;;4.85;;
20026;SDS011;10174;42.688;23.344;2023-07-31T07:25:43;7.35;;;5.20;;
20026;SDS011;10174;42.688;23.344;2023-07-31T07:28:10;6.43;;;4.68;;
20026;SDS011;10174;42.688;23.344;2023-07-31T07:30:35;6.57;;;4.65;;
20026;SDS011;10174;42.688;23.344;2023-07-31T07:33:01;8.13;;;4.88;;
20026;SDS011;10174;42.688;23.344;2023-07-31T07:35:26;6.00;;;4.60;;
20026;SDS011;10174;42.688;23.344;2023-07-31T07:37:51;9.73;;;4.50;;
20026;SDS011;10174;42.688;23.344;2023-07-31T07:40:18;5.70;;;4.13;;
20026;SDS011;10174;42.688;23.344;2023-07-31T07:42:44;8.98;;;4.88;;
20026;SDS011;10174;42.688;23.344;2023-07-31T07:45:09;8.05;;;4.30;;
20026;SDS011;10174;42.688;23.344;2023-07-31T07:47:35;7.70;;;4.72;;
20026;SDS011;10174;42.688;23.344;2023-07-31T07:50:00;8.18;;;3.80;;
20026;SDS011;10174;42.688;23.344;2023-07-31T07:52:25;7.88;;;4.25;;
20026;SDS011;10174;42.688;23.344;2023-07-31T07:54:51;5.95;;;3.90;;
20026;SDS011;10174;42.688;23.344;2023-07-31T07:57:16;8.57;;;3.88;;
20026;SDS011;10174;42.688;23.344;2023-07-31T07:59:41;8.15;;;3.53;;
20026;SDS011;10174;42.688;23.344;2023-07-31T08:02:08;5.32;;;3.70;;
20026;SDS011;10174;42.688;23.344;2023-07-31T08:04:33;6.40;;;3.85;;
20026;SDS011;10174;42.688;23.344;2023-07-31T08:06:59;7.53;;;3.90;;
20026;SDS011;10174;42.688;23.344;2023-07-31T08:09:25;6.35;;;3.95;;
20026;SDS011;10174;42.688;23.344;2023-07-31T08:11:50;7.13;;;4.35;;
20026;SDS011;10174;42.688;23.344;2023-07-31T08:14:15;5.75;;;3.85;;
20026;SDS011;10174;42.688;23.344;2023-07-31T08:16:41;7.97;;;4.20;;
20026;SDS011;10174;42.688;23.344;2023-07-31T08:19:06;5.53;;;3.97;;
20026;SDS011;10174;42.688;23.344;2023-07-31T08:21:32;5.95;;;4.10;;
20026;SDS011;10174;42.688;23.344;2023-07-31T08:23:57;5.40;;;4.00;;
20026;SDS011;10174;42.688;23.344;2023-07-31T08:26:22;8.93;;;4.10;;
20026;SDS011;10174;42.688;23.344;2023-07-31T08:28:48;7.60;;;4.03;;
20026;SDS011;10174;42.688;23.344;2023-07-31T08:31:13;5.18;;;3.85;;
20026;SDS011;10174;42.688;23.344;2023-07-31T08:33:39;6.18;;;3.53;;
20026;SDS011;10174;42.688;23.344;2023-07-31T08:36:05;7.63;;;3.60;;
20026;SDS011;10174;42.688;23.344;2023-07-31T08:38:31;5.20;;;3.65;;
20026;SDS011;10174;42.688;23.344;2023-07-31T08:40:57;4.93;;;3.67;;
20026;SDS011;10174;42.688;23.344;2023-07-31T08:43:26;4.50;;;3.20;;
20026;SDS011;10174;42.688;23.344;2023-07-31T08:45:52;5.18;;;3.28;;
20026;SDS011;10174;42.688;23.344;2023-07-31T08:48:18;4.65;;;3.30;;
20026;SDS011;10174;42.688;23.344;2023-07-31T08:50:45;5.20;;;3.45;;
20026;SDS011;10174;42.688;23.344;2023-07-31T08:53:11;6.90;;;3.55;;
20026;SDS011;10174;42.688;23.344;2023-07-31T08:55:37;5.68;;;3.67;;
20026;SDS011;10174;42.688;23.344;2023-07-31T08:58:04;6.32;;;3.83;;
20026;SDS011;10174;42.688;23.344;2023-07-31T09:00:30;6.85;;;3.45;;
20026;SDS011;10174;42.688;23.344;2023-07-31T09:02:59;4.50;;;3.35;;
20026;SDS011;10174;42.688;23.344;2023-07-31T09:05:28;5.32;;;3.63;;
20026;SDS011;10174;42.688;23.344;2023-07-31T09:07:55;8.75;;;2.97;;
20026;SDS011;10174;42.688;23.344;2023-07-31T09:10:22;4.90;;;3.33;;
20026;SDS011;10174;42.688;23.344;2023-07-31T09:12:47;4.60;;;3.13;;
20026;SDS011;10174;42.688;23.344;2023-07-31T09:15:14;4.20;;;3.22;;
20026;SDS011;10174;42.688;23.344;2023-07-31T09:17:39;5.85;;;3.30;;
20026;SDS011;10174;42.688;23.344;2023-07-31T09:22:46;8.02;;;2.90;;
20026;SDS011;10174;42.688;23.344;2023-07-31T09:25:23;3.55;;;2.75;;
20026;SDS011;10174;42.688;23.344;2023-07-31T09:27:53;4.53;;;3.08;;
20026;SDS011;10174;42.688;23.344;2023-07-31T09:30:19;5.55;;;3.40;;
20026;SDS011;10174;42.688;23.344;2023-07-31T09:32:45;5.47;;;3.50;;
20026;SDS011;10174;42.688;23.344;2023-07-31T09:37:53;5.78;;;3.33;;
20026;SDS011;10174;42.688;23.344;2023-07-31T09:40:30;6.00;;;3.65;;
20026;SDS011;10174;42.688;23.344;2023-07-31T09:42:57;4.88;;;3.20;;
20026;SDS011;10174;42.688;23.344;2023-07-31T09:45:27;3.92;;;3.08;;
20026;SDS011;10174;42.688;23.344;2023-07-31T09:47:53;4.68;;;2.95;;
20026;SDS011;10174;42.688;23.344;2023-07-31T09:50:20;5.18;;;3.22;;
20026;SDS011;10174;42.688;23.344;2023-07-31T09:52:47;5.25;;;2.95;;
20026;SDS011;10174;42.688;23.344;2023-07-31T09:55:12;4.78;;;3.05;;
20026;SDS011;10174;42.688;23.344;2023-07-31T09:57:45;4.65;;;3.25;;
20026;SDS011;10174;42.688;23.344;2023-07-31T10:00:13;3.92;;;2.90;;
20026;SDS011;10174;42.688;23.344;2023-07-31T10:02:40;4.45;;;2.33;;
20026;SDS011;10174;42.688;23.344;2023-07-31T10:05:06;3.90;;;2.70;;
20026;SDS011;10174;42.688;23.344;2023-07-31T10:07:36;8.73;;;2.95;;
20026;SDS011;10174;42.688;23.344;2023-07-31T10:10:07;3.95;;;2.78;;
20026;SDS011;10174;42.688;23.344;2023-07-31T10:12:33;6.75;;;3.08;;
20026;SDS011;10174;42.688;23.344;2023-07-31T10:15:00;4.57;;;2.50;;
20026;SDS011;10174;42.688;23.344;2023-07-31T10:17:27;3.67;;;2.60;;
20026;SDS011;10174;42.688;23.344;2023-07-31T10:19:54;3.40;;;2.58;;
20026;SDS011;10174;42.688;23.344;2023-07-31T10:22:22;5.00;;;2.20;;
20026;SDS011;10174;42.688;23.344;2023-07-31T10:24:49;2.95;;;2.20;;
20026;SDS011;10174;42.688;23.344;2023-07-31T10:27:15;3.05;;;2.22;;
20026;SDS011;10174;42.688;23.344;2023-07-31T10:29:41;5.40;;;3.28;;
20026;SDS011;10174;42.688;23.344;2023-07-31T10:32:09;6.82;;;2.88;;
20026;SDS011;10174;42.688;23.344;2023-07-31T10:34:36;3.63;;;2.10;;
20026;SDS011;10174;42.688;23.344;2023-07-31T10:37:20;4.18;;;2.30;;
20026;SDS011;10174;42.688;23.344;2023-07-31T10:45:32;3.08;;;2.25;;
20026;SDS011;10174;42.688;23.344;2023-07-31T10:48:05;2.60;;;2.00;;
20026;SDS011;10174;42.688;23.344;2023-07-31T10:50:33;4.47;;;2.25;;
20026;SDS011;10174;42.688;23.344;2023-07-31T10:53:03;4.95;;;2.30;;
20026;SDS011;10174;42.688;23.344;2023-07-31T10:58:13;3.03;;;2.20;;
20026;SDS011;10174;42.688;23.344;2023-07-31T11:03:09;9.63;;;3.03;;
20026;SDS011;10174;42.688;23.344;2023-07-31T11:10:47;3.40;;;2.03;;
20026;SDS011;10174;42.688;23.344;2023-07-31T11:13:13;3.25;;;2.13;;
20026;SDS011;10174;42.688;23.344;2023-07-31T11:15:39;8.25;;;2.20;;
20026;SDS011;10174;42.688;23.344;2023-07-31T11:18:05;4.50;;;1.80;;
20026;SDS011;10174;42.688;23.344;2023-07-31T11:20:34;3.75;;;1.80;;
20026;SDS011;10174;42.688;23.344;2023-07-31T11:23:01;3.20;;;1.77;;
20026;SDS011;10174;42.688;23.344;2023-07-31T11:25:31;4.68;;;2.65;;
20026;SDS011;10174;42.688;23.344;2023-07-31T11:28:13;3.60;;;1.92;;
20026;SDS011;10174;42.688;23.344;2023-07-31T11:30:40;4.20;;;1.90;;
20026;SDS011;10174;42.688;23.344;2023-07-31T11:33:07;4.78;;;2.20;;
20026;SDS011;10174;42.688;23.344;2023-07-31T11:35:44;3.90;;;2.15;;
20026;SDS011;10174;42.688;23.344;2023-07-31T11:38:32;3.15;;;1.80;;
20026;SDS011;10174;42.688;23.344;2023-07-31T11:41:01;2.53;;;2.08;;
20026;SDS011;10174;42.688;23.344;2023-07-31T11:43:28;4.97;;;2.10;;
20026;SDS011;10174;42.688;23.344;2023-07-31T11:45:58;6.10;;;2.60;;
20026;SDS011;10174;42.688;23.344;2023-07-31T11:50:53;5.15;;;3.00;;
20026;SDS011;10174;42.688;23.344;2023-07-31T11:53:21;4.07;;;3.00;;
20026;SDS011;10174;42.688;23.344;2023-07-31T11:56:16;4.15;;;3.03;;
20026;SDS011;10174;42.688;23.344;2023-07-31T11:58:43;3.10;;;2.45;;
20026;SDS011;10174;42.688;23.344;2023-07-31T12:01:11;3.63;;;2.70;;
20026;SDS011;10174;42.688;23.344;2023-07-31T12:03:38;4.45;;;3.13;;
20026;SDS011;10174;42.688;23.344;2023-07-31T12:06:04;4.85;;;3.30;;
20026;SDS011;10174;42.688;23.344;2023-07-31T12:08:29;4.28;;;3.13;;
20026;SDS011;10174;42.688;23.344;2023-07-31T12:11:01;5.55;;;3.28;;
20026;SDS011;10174;42.688;23.344;2023-07-31T12:13:31;6.53;;;3.58;;
20026;SDS011;10174;42.688;23.344;2023-07-31T12:15:58;4.80;;;3.38;;
20026;SDS011;10174;42.688;23.344;2023-07-31T12:18:27;5.55;;;3.28;;
20026;SDS011;10174;42.688;23.344;2023-07-31T12:20:57;6.90;;;4.68;;
20026;SDS011;10174;42.688;23.344;2023-07-31T12:26:09;6.15;;;4.43;;
20026;SDS011;10174;42.688;23.344;2023-07-31T12:28:36;5.65;;;4.10;;
20026;SDS011;10174;42.688;23.344;2023-07-31T12:31:05;8.15;;;5.07;;
20026;SDS011;10174;42.688;23.344;2023-07-31T12:33:32;5.90;;;4.70;;
20026;SDS011;10174;42.688;23.344;2023-07-31T12:36:02;8.57;;;5.32;;
20026;SDS011;10174;42.688;23.344;2023-07-31T12:38:29;9.93;;;4.18;;
20026;SDS011;10174;42.688;23.344;2023-07-31T12:40:55;7.78;;;5.07;;
20026;SDS011;10174;42.688;23.344;2023-07-31T12:43:20;7.93;;;5.00;;
20026;SDS011;10174;42.688;23.344;2023-07-31T12:45:45;6.97;;;4.90;;
20026;SDS011;10174;42.688;23.344;2023-07-31T12:48:12;6.05;;;4.35;;
20026;SDS011;10174;42.688;23.344;2023-07-31T12:50:38;6.85;;;5.20;;
20026;SDS011;10174;42.688;23.344;2023-07-31T12:53:04;6.72;;;5.00;;
20026;SDS011;10174;42.688;23.344;2023-07-31T12:55:30;6.65;;;5.28;;
20026;SDS011;10174;42.688;23.344;2023-07-31T12:57:55;9.65;;;5.93;;
20026;SDS011;10174;42.688;23.344;2023-07-31T13:00:21;7.85;;;5.50;;
20026;SDS011;10174;42.688;23.344;2023-07-31T13:02:47;8.43;;;5.75;;
20026;SDS011;10174;42.688;23.344;2023-07-31T13:05:12;10.88;;;6.15;;
20026;SDS011;10174;42.688;23.344;2023-07-31T13:07:38;10.80;;;6.25;;
20026;SDS011;10174;42.688;23.344;2023-07-31T13:10:04;7.45;;;5.72;;
20026;SDS011;10174;42.688;23.344;2023-07-31T13:12:31;10.57;;;6.72;;
20026;SDS011;10174;42.688;23.344;2023-07-31T13:14:56;11.10;;;6.05;;
20026;SDS011;10174;42.688;23.344;2023-07-31T13:17:21;7.80;;;5.55;;
20026;SDS011;10174;42.688;23.344;2023-07-31T13:19:47;10.45;;;6.03;;
20026;SDS011;10174;42.688;23.344;2023-07-31T13:22:12;8.88;;;5.47;;
20026;SDS011;10174;42.688;23.344;2023-07-31T13:24:37;9.63;;;5.72;;
20026;SDS011;10174;42.688;23.344;2023-07-31T13:27:03;7.93;;;6.13;;
20026;SDS011;10174;42.688;23.344;2023-07-31T13:29:29;10.02;;;4.97;;
20026;SDS011;10174;42.688;23.344;2023-07-31T13:31:55;11.35;;;5.97;;
20026;SDS011;10174;42.688;23.344;2023-07-31T13:34:20;10.02;;;5.20;;
20026;SDS011;10174;42.688;23.344;2023-07-31T13:36:46;7.45;;;4.70;;
20026;SDS011;10174;42.688;23.344;2023-07-31T13:39:11;6.32;;;4.85;;
20026;SDS011;10174;42.688;23.344;2023-07-31T13:41:37;9.13;;;5.10;;
20026;SDS011;10174;42.688;23.344;2023-07-31T13:44:02;7.97;;;4.60;;
20026;SDS011;10174;42.688;23.344;2023-07-31T13:46:28;8.10;;;5.32;;
20026;SDS011;10174;42.688;23.344;2023-07-31T13:48:53;7.70;;;5.65;;
20026;SDS011;10174;42.688;23.344;2023-07-31T13:51:20;5.97;;;4.72;;
20026;SDS011;10174;42.688;23.344;2023-07-31T13:53:46;7.90;;;4.70;;
20026;SDS011;10174;42.688;23.344;2023-07-31T13:56:12;8.05;;;4.90;;
20026;SDS011;10174;42.688;23.344;2023-07-31T13:58:37;5.95;;;4.25;;
20026;SDS011;10174;42.688;23.344;2023-07-31T14:01:03;4.75;;;4.18;;
20026;SDS011;10174;42.688;23.344;2023-07-31T14:03:28;6.60;;;4.28;;
20026;SDS011;10174;42.688;23.344;2023-07-31T14:05:54;6.63;;;4.45;;
20026;SDS011;10174;42.688;23.344;2023-07-31T14:08:20;5.68;;;4.40;;
20026;SDS011;10174;42.688;23.344;2023-07-31T14:10:46;6.78;;;4.10;;
20026;SDS011;10174;42.688;23.344;2023-07-31T14:13:11;4.90;;;4.10;;
20026;SDS011;10174;42.688;23.344;2023-07-31T14:15:37;7.20;;;4.43;;
20026;SDS011;10174;42.688;23.344;2023-07-31T14:18:02;6.60;;;4.57;;
20026;SDS011;10174;42.688;23.344;2023-07-31T14:20:28;6.30;;;5.53;;
20026;SDS011;10174;42.688;23.344;2023-07-31T14:22:53;7.55;;;4.55;;
20026;SDS011;10174;42.688;23.344;2023-07-31T14:25:19;9.00;;;4.60;;
20026;SDS011;10174;42.688;23.344;2023-07-31T14:27:45;5.90;;;4.70;;
20026;SDS011;10174;42.688;23.344;2023-07-31T14:30:10;5.50;;;4.65;;
20026;SDS011;10174;42.688;23.344;2023-07-31T14:32:36;6.15;;;4.28;;
20026;SDS011;10174;42.688;23.344;2023-07-31T14:35:02;6.78;;;4.35;;
20026;SDS011;10174;42.688;23.344;2023-07-31T14:37:35;5.53;;;4.18;;
20026;SDS011;10174;42.688;23.344;2023-07-31T14:40:08;6.63;;;4.38;;
20026;SDS011;10174;42.688;23.344;2023-07-31T14:42:35;6.03;;;4.38;;
20026;SDS011;10174;42.688;23.344;2023-07-31T14:45:01;5.13;;;4.10;;
20026;SDS011;10174;42.688;23.344;2023-07-31T14:47:27;6.05;;;4.22;;
20026;SDS011;10174;42.688;23.344;2023-07-31T14:49:53;5.47;;;4.00;;
20026;SDS011;10174;42.688;23.344;2023-07-31T14:52:18;5.13;;;3.97;;